Time;durP1;ratioP1;P1;durP2;ratioP2;P2;SDS_P1;SDS_P2;PMS_P1;PMS_P2;Temp;Humidity;BMP_temperature;BMP_pressure;BME280_temperature;BME280_humidity;BME280_pressure;Samples;Min_cycle;Max_cycle;Signal;HPM_P1;HPM_P2
2022/04/09 00:00:17;;;;;;;4.87;1.10;;;;;;;-142.75;100.00;77349.88;5032444;28;20029;-66
2022/04/09 00:02:42;;;;;;;8.50;1.20;;;;;;;-142.75;100.00;77351.84;5033187;28;20022;-66
2022/04/09 00:05:11;;;;;;;9.27;2.10;;;;;;;-142.75;100.00;77349.88;5032816;28;20037;-66
2022/04/09 00:07:36;;;;;;;8.07;1.47;;;;;;;-142.75;100.00;77347.91;5032992;28;20056;-65
2022/04/09 00:10:06;;;;;;;6.25;1.13;;;;;;;-142.75;100.00;77349.88;5032368;28;20053;-65
2022/04/09 00:12:32;;;;;;;11.83;1.53;;;;;;;-142.75;100.00;77349.88;5032836;28;20033;-66
2022/04/09 00:14:57;;;;;;;12.80;1.58;;;;;;;-142.75;100.00;77357.75;5032805;28;20507;-66
2022/04/09 00:17:23;;;;;;;4.50;1.15;;;;;;;-142.75;100.00;77361.69;5032842;28;20060;-66
2022/04/09 00:19:48;;;;;;;8.15;1.15;;;;;;;-142.75;100.00;77387.28;5032561;28;20017;-66
2022/04/09 00:22:14;;;;;;;5.85;1.50;;;;;;;-142.75;100.00;77395.16;5032702;28;20030;-66
2022/04/09 00:24:39;;;;;;;10.00;1.83;;;;;;;-142.75;100.00;77412.88;5031361;28;20616;-66
2022/04/09 00:27:05;;;;;;;4.68;1.00;;;;;;;-142.75;100.00;77428.63;5031304;28;20049;-66
2022/04/09 00:29:30;;;;;;;6.05;0.80;;;;;;;-142.75;100.00;77440.44;5032236;28;20562;-66
2022/04/09 00:31:55;;;;;;;8.60;1.37;;;;;;;-142.75;100.00;77452.25;5032542;28;20044;-66
2022/04/09 00:34:20;;;;;;;3.03;1.10;;;;;;;-142.75;100.00;77454.25;5032496;28;20304;-66
2022/04/09 00:36:46;;;;;;;11.20;1.38;;;;;;;-142.75;100.00;77454.25;5032419;28;20028;-67
2022/04/09 00:39:11;;;;;;;10.40;1.63;;;;;;;-142.75;100.00;77448.34;5032028;28;20075;-67
2022/04/09 00:41:40;;;;;;;4.82;1.15;;;;;;;-142.75;100.00;77446.34;5032371;28;20030;-66
2022/04/09 00:44:16;;;;;;;9.97;1.27;;;;;;;-142.75;100.00;77450.28;5032280;28;20087;-66
2022/04/09 00:46:41;;;;;;;8.35;1.40;;;;;;;-142.75;100.00;77450.28;5032224;28;20036;-66
2022/04/09 00:49:07;;;;;;;9.50;1.65;;;;;;;-142.75;100.00;77444.38;5032146;28;20025;-66
2022/04/09 00:51:36;;;;;;;10.18;1.30;;;;;;;-142.75;100.00;77444.38;5032468;28;20053;-66
2022/04/09 00:54:05;;;;;;;5.80;1.17;;;;;;;-142.75;100.00;77444.38;5032282;28;20044;-66
2022/04/09 00:56:31;;;;;;;11.90;1.87;;;;;;;-142.75;100.00;77444.38;5031953;28;20033;-65
2022/04/09 00:59:00;;;;;;;7.27;1.33;;;;;;;-142.75;100.00;77446.34;5031778;28;20391;-65
2022/04/09 01:01:27;;;;;;;9.33;1.83;;;;;;;-142.75;100.00;77444.38;5032640;28;20025;-65
2022/04/09 01:03:54;;;;;;;6.77;1.60;;;;;;;-142.75;100.00;77452.25;5032689;28;20061;-65
2022/04/09 01:06:19;;;;;;;7.53;1.43;;;;;;;-142.75;100.00;77444.38;5032541;28;20107;-66
2022/04/09 01:08:45;;;;;;;3.70;1.05;;;;;;;-142.75;100.00;77448.34;5032174;28;20112;-66
2022/04/09 01:11:14;;;;;;;11.68;1.85;;;;;;;-142.75;100.00;77438.47;5031967;28;20060;-66
2022/04/09 01:13:40;;;;;;;10.30;1.30;;;;;;;-142.75;100.00;77442.41;5032338;28;20032;-65
2022/04/09 01:16:06;;;;;;;16.67;1.90;;;;;;;-142.75;100.00;77452.25;5031949;28;20475;-66
2022/04/09 01:18:33;;;;;;;4.30;0.98;;;;;;;-142.75;100.00;77448.34;5031924;28;20071;-67
2022/04/09 01:21:00;;;;;;;5.80;1.57;;;;;;;-142.75;100.00;77446.34;5031855;28;20419;-66
2022/04/09 01:23:26;;;;;;;9.90;1.27;;;;;;;-142.75;100.00;77444.38;5031701;28;20029;-65
2022/04/09 01:25:52;;;;;;;3.77;1.40;;;;;;;-142.75;100.00;77448.34;5031840;28;20064;-65
2022/04/09 01:28:17;;;;;;;11.90;2.05;;;;;;;-142.75;100.00;77448.34;5031528;28;20057;-66
2022/04/09 01:30:44;;;;;;;6.45;1.50;;;;;;;-142.75;100.00;77456.22;5031511;28;20017;-65
2022/04/09 01:33:17;;;;;;;6.87;1.03;;;;;;;-142.75;100.00;77458.16;5031304;28;20033;-65
2022/04/09 01:35:42;;;;;;;9.60;1.23;;;;;;;-142.75;100.00;77456.22;5030982;28;20059;-66
2022/04/09 01:38:07;;;;;;;7.80;1.45;;;;;;;-142.75;100.00;77452.25;5031769;28;20088;-66
2022/04/09 01:40:33;;;;;;;9.80;2.13;;;;;;;-142.75;100.00;77450.28;5031641;28;20017;-66
2022/04/09 01:42:58;;;;;;;9.88;1.45;;;;;;;-142.75;100.00;77456.22;5031329;28;20104;-65
2022/04/09 01:45:24;;;;;;;4.35;1.13;;;;;;;-142.75;100.00;77456.22;5030991;28;20025;-65
2022/04/09 01:47:49;;;;;;;10.45;1.75;;;;;;;-142.75;100.00;77454.25;5031419;28;20025;-66
2022/04/09 01:50:15;;;;;;;8.70;1.48;;;;;;;-142.75;100.00;77456.22;5030858;28;20068;-65
2022/04/09 01:52:40;;;;;;;9.40;1.85;;;;;;;-142.75;100.00;77464.09;5031139;28;20043;-66
2022/04/09 01:55:06;;;;;;;5.15;1.48;;;;;;;-142.75;100.00;77470.00;5031025;28;20033;-66
2022/04/09 01:57:33;;;;;;;6.10;1.20;;;;;;;-142.75;100.00;77481.81;5030956;28;20029;-66
2022/04/09 01:59:58;;;;;;;7.25;1.10;;;;;;;-142.75;100.00;77475.91;5030668;28;20025;-66
2022/04/09 02:02:23;;;;;;;5.47;1.37;;;;;;;-142.75;100.00;77475.91;5030975;28;20506;-65
2022/04/09 02:04:48;;;;;;;6.57;1.07;;;;;;;-142.75;100.00;77481.81;5031030;28;20288;-66
2022/04/09 02:07:14;;;;;;;6.65;0.73;;;;;;;-142.75;100.00;77483.78;5030704;28;20025;-66
2022/04/09 02:09:39;;;;;;;8.55;1.13;;;;;;;-142.75;100.00;77489.69;5029216;28;20028;-66
2022/04/09 02:12:06;;;;;;;3.40;0.63;;;;;;;-142.75;100.00;77503.47;5030799;28;20021;-66
2022/04/09 02:14:31;;;;;;;5.43;0.80;;;;;;;-142.75;100.00;77511.34;5030814;28;20060;-66
2022/04/09 02:16:56;;;;;;;9.45;1.83;;;;;;;-142.75;100.00;77515.28;5030701;28;20061;-66
2022/04/09 02:19:22;;;;;;;7.20;0.70;;;;;;;-142.75;100.00;77509.38;5030458;28;20100;-66
2022/04/09 02:21:47;;;;;;;6.10;1.63;;;;;;;-142.75;100.00;77521.19;5030738;28;20040;-66
2022/04/09 02:24:12;;;;;;;5.32;1.00;;;;;;;-142.75;100.00;77529.06;5035590;28;20079;-66
2022/04/09 02:26:37;;;;;;;6.47;1.08;;;;;;;-142.75;100.00;77534.97;5037223;28;20055;-66
2022/04/09 02:29:03;;;;;;;5.60;1.60;;;;;;;-142.75;100.00;77538.91;5036854;28;20510;-66
2022/04/09 02:31:28;;;;;;;4.50;0.98;;;;;;;-142.75;100.00;77548.75;5037253;28;20264;-66
2022/04/09 02:33:54;;;;;;;5.20;1.55;;;;;;;-142.75;100.00;77550.72;5037139;28;20031;-66
2022/04/09 02:36:19;;;;;;;4.95;1.60;;;;;;;-142.75;100.00;77554.66;5037059;28;20532;-66
2022/04/09 02:38:45;;;;;;;6.70;1.20;;;;;;;-142.75;100.00;77558.59;5036972;28;20028;-65
2022/04/09 02:41:10;;;;;;;5.85;1.02;;;;;;;-142.75;100.00;77566.47;5037033;28;20491;-65
2022/04/09 02:43:36;;;;;;;9.15;1.50;;;;;;;-142.75;100.00;77576.31;5037128;28;20029;-66
2022/04/09 02:46:02;;;;;;;7.82;1.20;;;;;;;-142.75;100.00;77572.38;5036927;28;20029;-66
2022/04/09 02:48:27;;;;;;;12.02;1.42;;;;;;;-142.75;100.00;77574.34;5036760;28;20036;-66
2022/04/09 02:50:53;;;;;;;6.75;1.75;;;;;;;-142.75;100.00;77586.16;5036912;28;20450;-66
2022/04/09 02:53:19;;;;;;;5.53;1.60;;;;;;;-142.75;100.00;77584.19;5037098;28;20434;-66
2022/04/09 02:55:45;;;;;;;5.72;1.45;;;;;;;-142.75;100.00;77592.06;5036873;28;20036;-66
2022/04/09 02:58:10;;;;;;;7.90;1.10;;;;;;;-142.75;100.00;77590.09;5035479;28;20060;-66
2022/04/09 03:00:35;;;;;;;5.90;1.17;;;;;;;-142.75;100.00;77597.97;5036912;28;20049;-66
2022/04/09 03:03:01;;;;;;;7.97;1.40;;;;;;;-142.75;100.00;77603.88;5036899;28;20065;-66
2022/04/09 03:07:59;;;;;;;10.33;1.20;;;;;;;-142.75;100.00;77603.88;4992330;28;20078;-68
2022/04/09 03:10:25;;;;;;;17.20;1.75;;;;;;;-142.75;100.00;77613.72;4996265;28;20496;-67
2022/04/09 03:12:50;;;;;;;7.05;1.65;;;;;;;-142.75;100.00;77611.75;4997473;28;20045;-66
2022/04/09 03:15:16;;;;;;;9.88;1.60;;;;;;;-142.75;100.00;77611.75;4997412;28;20026;-65
2022/04/09 03:17:41;;;;;;;8.98;1.42;;;;;;;-142.75;100.00;77617.66;4997422;28;20046;-67
2022/04/09 03:20:07;;;;;;;10.50;1.73;;;;;;;-142.75;100.00;77615.69;4979476;28;20060;-68
2022/04/09 03:22:33;;;;;;;5.93;1.13;;;;;;;-142.75;100.00;77615.69;4997342;28;20022;-67
2022/04/09 03:24:59;;;;;;;7.50;1.42;;;;;;;-142.75;100.00;77617.66;4997349;28;20030;-67
2022/04/09 03:27:25;;;;;;;6.25;1.00;;;;;;;-142.75;100.00;77617.66;4997275;28;20025;-68
2022/04/09 03:29:51;;;;;;;;;;;;;;;-142.75;100.00;77621.59;4997396;28;20030;-67
2022/04/09 03:32:16;;;;;;;10.23;1.37;;;;;;;-142.75;100.00;77623.56;4997413;28;19914;-67
2022/04/09 03:34:42;;;;;;;7.38;1.00;;;;;;;-142.75;100.00;77623.56;4995034;28;20096;-67
2022/04/09 03:37:07;;;;;;;5.88;0.85;;;;;;;-142.75;100.00;77635.38;4994178;28;20026;-67
2022/04/09 03:39:33;;;;;;;6.00;1.17;;;;;;;-142.75;100.00;77637.34;4993904;28;20018;-69
2022/04/09 03:41:58;;;;;;;5.07;0.98;;;;;;;-142.75;100.00;77633.41;4994291;28;20838;-67
2022/04/09 03:44:24;;;;;;;6.13;1.05;;;;;;;-142.75;100.00;77631.44;4994126;28;20033;-67
2022/04/09 03:46:49;;;;;;;7.15;1.63;;;;;;;-142.75;100.00;77645.22;4994000;28;20030;-68
2022/04/09 03:49:15;;;;;;;6.57;1.05;;;;;;;-142.75;100.00;77639.31;4993109;28;20037;-68
2022/04/09 03:51:40;;;;;;;8.02;1.73;;;;;;;-142.75;100.00;77641.28;4993818;28;20022;-67
2022/04/09 03:54:06;;;;;;;7.35;1.20;;;;;;;-142.75;100.00;77637.34;4993976;28;20030;-67
2022/04/09 03:56:31;;;;;;;4.07;1.02;;;;;;;-142.75;100.00;77625.53;4976466;28;20033;-68
2022/04/09 03:58:56;;;;;;;7.63;1.00;;;;;;;-142.75;100.00;77633.41;4976149;28;20404;-67
2022/04/09 04:01:24;;;;;;;5.78;0.90;;;;;;;-142.75;100.00;77631.44;4976394;28;20042;-67
2022/04/09 04:03:50;;;;;;;3.70;1.17;;;;;;;-142.75;100.00;77629.47;4993680;28;20401;-68
2022/04/09 04:06:15;;;;;;;6.43;1.15;;;;;;;-142.75;100.00;77629.47;4993310;28;20121;-67
2022/04/09 04:08:40;;;;;;;8.00;1.42;;;;;;;-142.75;100.00;77629.47;4975993;28;20117;-68
2022/04/09 04:11:06;;;;;;;8.30;2.07;;;;;;;-142.75;100.00;77637.34;4976063;28;20026;-68
2022/04/09 04:13:33;;;;;;;5.18;1.15;;;;;;;-142.75;100.00;77639.31;4993477;28;20266;-68
2022/04/09 04:15:59;;;;;;;10.67;2.13;;;;;;;-142.75;100.00;77645.22;4975956;28;20034;-68
2022/04/09 04:18:24;;;;;;;;;;;;;;;-142.75;100.00;77649.16;4993659;28;20072;-68
2022/04/09 04:20:49;;;;;;;10.03;1.30;;;;;;;-142.75;100.00;77653.09;4993333;28;19917;-67
2022/04/09 04:23:15;;;;;;;8.83;1.57;;;;;;;-142.75;100.00;77655.06;4993400;28;20026;-67
2022/04/09 04:25:40;;;;;;;9.90;1.83;;;;;;;-142.75;100.00;77659.00;4993345;28;20030;-67
2022/04/09 04:28:05;;;;;;;10.40;1.50;;;;;;;-142.75;100.00;77668.84;4992930;28;20166;-67
2022/04/09 04:30:31;;;;;;;5.18;1.10;;;;;;;-142.75;100.00;77660.97;4993209;28;20030;-68
2022/04/09 04:32:56;;;;;;;5.85;1.38;;;;;;;-142.75;100.00;77657.03;4993132;28;20037;-67
2022/04/09 04:35:22;;;;;;;7.93;1.40;;;;;;;-142.75;100.00;77660.97;4993029;28;20034;-67
2022/04/09 04:37:47;;;;;;;6.00;0.85;;;;;;;-142.75;100.00;77649.16;4992892;28;20388;-66
2022/04/09 04:40:15;;;;;;;6.57;1.70;;;;;;;-142.75;100.00;77657.03;4992919;28;20495;-65
2022/04/09 04:42:40;;;;;;;7.57;1.30;;;;;;;-142.75;100.00;77657.03;4993018;28;20046;-68
2022/04/09 04:45:06;;;;;;;7.93;1.60;;;;;;;-142.75;100.00;77651.13;4992950;28;20057;-67
2022/04/09 04:47:32;;;;;;;11.90;1.33;;;;;;;-142.75;100.00;77649.16;4992685;28;20143;-67
2022/04/09 04:50:02;;;;;;;7.15;1.85;;;;;;;-142.75;100.00;77645.22;4992342;28;20026;-67
2022/04/09 04:52:28;;;;;;;6.43;1.20;;;;;;;-142.75;100.00;77647.19;4992796;28;20026;-68
2022/04/09 04:54:53;;;;;;;6.03;1.87;;;;;;;-142.75;100.00;77649.16;4992800;28;20030;-68
2022/04/09 04:57:18;;;;;;;10.20;1.45;;;;;;;-142.75;100.00;77645.22;4992578;28;20284;-67
2022/04/09 04:59:43;;;;;;;5.50;1.57;;;;;;;-142.75;100.00;77645.22;4992418;28;20023;-66
2022/04/09 05:02:09;;;;;;;10.07;1.53;;;;;;;-142.75;100.00;77643.25;4992644;28;20755;-67
2022/04/09 05:04:34;;;;;;;16.98;1.70;;;;;;;-142.75;100.00;77651.13;4992509;28;20034;-67
2022/04/09 05:06:59;;;;;;;11.20;1.35;;;;;;;-142.75;100.00;77641.28;4974968;28;20053;-67
2022/04/09 05:09:24;;;;;;;5.55;1.20;;;;;;;-142.75;100.00;77637.34;4974701;28;20034;-67
2022/04/09 05:11:50;;;;;;;7.63;1.63;;;;;;;-142.75;100.00;77637.34;4992545;28;20034;-68
2022/04/09 05:14:15;;;;;;;8.30;1.63;;;;;;;-142.75;100.00;77629.47;4992481;28;20108;-65
2022/04/09 05:16:40;;;;;;;8.75;1.58;;;;;;;-142.75;100.00;77625.53;4974796;28;20378;-67
2022/04/09 05:19:06;;;;;;;11.40;2.25;;;;;;;-142.75;100.00;77629.47;4991958;28;20026;-67
2022/04/09 05:21:31;;;;;;;7.68;1.80;;;;;;;-142.75;100.00;77633.41;4974797;28;20117;-67
2022/04/09 05:23:57;;;;;;;11.02;1.80;;;;;;;-142.75;100.00;77639.31;4992331;28;20400;-68
2022/04/09 05:26:22;;;;;;;5.75;1.63;;;;;;;-142.75;100.00;77639.31;4974675;28;20554;-67
2022/04/09 05:28:53;;;;;;;7.45;2.00;;;;;;;-142.75;100.00;77645.22;4991929;28;20503;-67
2022/04/09 05:31:20;;;;;;;13.17;2.00;;;;;;;-142.75;100.00;77643.25;4992183;28;20026;-67
2022/04/09 05:33:45;;;;;;;10.90;2.13;;;;;;;-142.75;100.00;77641.28;4991957;28;20121;-68
2022/04/09 05:36:11;;;;;;;13.35;2.45;;;;;;;-142.75;100.00;77645.22;4992181;28;20105;-67
2022/04/09 05:38:36;;;;;;;10.27;2.17;;;;;;;-142.75;100.00;77649.16;4991707;28;20412;-67
2022/04/09 05:41:01;;;;;;;13.27;2.40;;;;;;;-142.75;100.00;77657.03;4991927;28;20400;-67
2022/04/09 05:43:28;;;;;;;10.23;2.10;;;;;;;-142.75;100.00;77674.75;4974598;28;20041;-67
2022/04/09 05:45:53;;;;;;;6.23;1.50;;;;;;;-142.75;100.00;77704.28;4991710;28;20371;-67
2022/04/09 05:48:18;;;;;;;8.90;1.37;;;;;;;-142.75;100.00;77723.97;4991486;28;20484;-67
2022/04/09 05:50:44;;;;;;;6.70;1.57;;;;;;;-142.75;100.00;77747.63;4991822;28;20297;-67
2022/04/09 05:53:09;;;;;;;3.85;1.08;;;;;;;-142.75;100.00;77773.22;4991898;28;20032;-67
2022/04/09 05:55:34;;;;;;;5.60;1.63;;;;;;;-142.75;100.00;77781.09;4991619;28;20026;-69
2022/04/09 05:58:00;;;;;;;6.63;1.55;;;;;;;-142.75;100.00;77792.91;4990889;28;20367;-67
2022/04/09 06:00:25;;;;;;;3.63;1.00;;;;;;;-142.75;100.00;77794.88;4991625;28;20404;-66
2022/04/09 06:02:51;;;;;;;3.70;0.93;;;;;;;-142.75;100.00;77802.75;4974032;28;20022;-67
2022/04/09 06:05:16;;;;;;;2.85;1.27;;;;;;;-142.75;100.00;77802.75;4991641;28;20054;-67
2022/04/09 06:07:41;;;;;;;5.80;0.80;;;;;;;-142.75;100.00;77800.78;4991369;28;20049;-67
2022/04/09 06:10:08;;;;;;;3.93;1.10;;;;;;;-142.75;100.00;77798.81;4973863;28;20380;-67
2022/04/09 06:12:34;;;;;;;4.83;1.00;;;;;;;-142.75;100.00;77802.75;4974039;28;20023;-66
2022/04/09 06:15:01;;;;;;;2.50;1.05;;;;;;;-142.75;100.00;77806.69;4991476;28;20049;-67
2022/04/09 06:17:26;;;;;;;2.13;0.80;;;;;;;-142.75;100.00;77796.84;4973788;28;20023;-68
2022/04/09 06:19:52;;;;;;;6.35;1.40;;;;;;;-142.75;100.00;77792.91;4991174;28;20413;-67
2022/04/09 06:22:18;;;;;;;9.38;1.50;;;;;;;-142.75;100.00;77802.75;4991370;28;20045;-67
2022/04/09 06:24:44;;;;;;;15.37;1.90;;;;;;;-142.75;100.00;77800.78;4973984;28;20092;-67
2022/04/09 06:27:10;;;;;;;15.85;2.00;;;;;;;-142.75;100.00;77787.00;4973968;28;20030;-68
2022/04/09 06:29:36;;;;;;;9.60;1.53;;;;;;;-142.75;100.00;77773.22;4972407;28;20037;-67
2022/04/09 06:32:01;;;;;;;13.15;1.88;;;;;;;-142.75;100.00;77767.31;4991237;28;20440;-70
2022/04/09 06:34:27;;;;;;;6.47;1.48;;;;;;;-142.75;100.00;77759.44;4991319;28;20019;-67
2022/04/09 06:36:52;;;;;;;6.53;1.27;;;;;;;-142.75;100.00;77747.63;4991352;28;20040;-67
2022/04/09 06:39:18;;;;;;;8.68;1.63;;;;;;;-142.75;100.00;77735.81;4990980;28;20018;-67
2022/04/09 06:41:44;;;;;;;7.65;1.73;;;;;;;-142.75;100.00;77712.16;4991148;28;20029;-67
2022/04/09 06:44:11;;;;;;;5.10;1.58;;;;;;;-142.75;100.00;77696.41;4991235;28;20366;-67
2022/04/09 06:46:36;;;;;;;9.47;1.73;;;;;;;-142.75;100.00;77694.44;4990980;28;20125;-67
2022/04/09 06:49:02;;;;;;;8.57;2.05;;;;;;;-142.75;100.00;77698.38;4990724;28;20026;-67
2022/04/09 06:51:27;;;;;;;8.65;1.77;;;;;;;-142.75;100.00;77700.34;4991378;28;20026;-67
2022/04/09 06:53:52;;;;;;;7.30;1.33;;;;;;;-142.75;100.00;77704.28;4991175;28;20026;-68
2022/04/09 06:56:18;;;;;;;7.30;2.10;;;;;;;-142.75;100.00;77712.16;4991030;28;20785;-67
2022/04/09 06:58:43;;;;;;;6.15;1.45;;;;;;;-142.75;100.00;77714.13;4973252;28;20037;-67
2022/04/09 07:01:10;;;;;;;4.67;1.30;;;;;;;-142.75;100.00;77712.16;4990874;28;20028;-67
2022/04/09 07:03:35;;;;;;;;;;;;;;;-142.75;100.00;77722.00;4991539;28;20024;-67
2022/04/09 07:06:00;;;;;;;10.80;1.73;;;;;;;-142.75;100.00;77722.00;4973165;28;20394;-67
2022/04/09 07:08:25;;;;;;;7.80;2.03;;;;;;;-142.75;100.00;77723.97;4990779;28;20037;-67
2022/04/09 07:10:51;;;;;;;7.20;1.73;;;;;;;-142.75;100.00;77720.03;4992878;28;20053;-68
2022/04/09 07:13:16;;;;;;;9.25;1.95;;;;;;;-142.75;100.00;77729.88;4977264;28;20109;-67
2022/04/09 07:15:43;;;;;;;5.17;1.90;;;;;;;-142.75;100.00;77708.22;4976777;28;20050;-68
2022/04/09 07:18:09;;;;;;;13.43;2.15;;;;;;;-142.75;100.00;77704.28;4994284;28;20040;-68
2022/04/09 07:20:36;;;;;;;6.95;1.85;;;;;;;-142.75;100.00;77696.41;4977051;28;20093;-68
2022/04/09 07:23:02;;;;;;;8.77;1.40;;;;;;;-142.75;100.00;77692.47;4976963;28;20026;-68
2022/04/09 07:25:28;;;;;;;6.50;1.40;;;;;;;-142.75;100.00;77688.53;4994324;28;20476;-68
2022/04/09 07:27:53;;;;;;;4.47;1.23;;;;;;;-142.75;100.00;77722.00;4994162;28;20080;-67
2022/04/09 07:30:20;;;;;;;8.00;1.77;;;;;;;-142.75;100.00;77739.75;4992842;28;20056;-66
2022/04/09 07:32:47;;;;;;;4.97;1.53;;;;;;;-142.75;100.00;77743.69;4975958;28;20277;-68
2022/04/09 07:35:14;;;;;;;6.83;1.13;;;;;;;-142.75;100.00;77753.53;4993084;28;20057;-66
2022/04/09 07:37:49;;;;;;;5.87;0.87;;;;;;;-142.75;100.00;77765.34;4993285;28;20362;-66
2022/04/09 07:40:17;;;;;;;2.90;0.97;;;;;;;-142.75;100.00;77745.66;4992929;28;20030;-66
2022/04/09 07:42:44;;;;;;;1.83;0.90;;;;;;;-142.75;100.00;77718.06;4993117;28;20026;-67
2022/04/09 07:45:11;;;;;;;3.60;0.87;;;;;;;-142.75;100.00;77712.16;4992930;28;20110;-66
2022/04/09 07:47:36;;;;;;;7.33;1.77;;;;;;;-142.75;100.00;77731.88;4975361;28;20117;-66
2022/04/09 07:50:05;;;;;;;6.60;1.60;;;;;;;-142.75;100.00;77733.84;4992746;28;20113;-66
2022/04/09 07:52:30;;;;;;;3.60;0.80;;;;;;;-142.75;100.00;77692.47;4992830;28;20332;-66
2022/04/09 07:54:57;;;;;;;9.32;1.50;;;;;;;-142.75;100.00;77621.59;4992962;28;20484;-66
2022/04/09 07:57:32;;;;;;;5.53;0.93;;;;;;;-142.75;100.00;77611.75;4974038;28;20428;-65
2022/04/09 07:59:58;;;;;;;3.60;0.50;;;;;;;-142.75;100.00;77641.28;4992515;28;20026;-67
2022/04/09 08:02:24;;;;;;;3.33;0.43;;;;;;;-142.75;100.00;77657.03;4992757;28;20101;-66
2022/04/09 08:04:49;;;;;;;1.17;0.43;;;;;;;-142.75;100.00;77694.44;4992829;28;20027;-65
2022/04/09 08:07:14;;;;;;;1.92;0.52;;;;;;;-142.75;100.00;77718.06;4992414;28;20476;-68
2022/04/09 08:09:40;;;;;;;1.08;0.40;;;;;;;-142.75;100.00;77735.81;4993345;28;20113;-63
2022/04/09 08:12:05;;;;;;;2.75;0.30;;;;;;;-142.75;100.00;77739.75;4991098;28;20088;-64
2022/04/09 08:14:32;;;;;;;2.78;0.47;;;;;;;-142.75;100.00;77753.53;4992993;28;20081;-66
2022/04/09 08:16:59;;;;;;;1.23;0.40;;;;;;;-142.75;100.00;77710.19;4974254;28;20443;-66
2022/04/09 08:19:24;;;;;;;;;;;;;;;-142.75;100.00;77633.41;4993460;28;20022;-65
2022/04/09 08:21:50;;;;;;;3.13;0.73;;;;;;;-142.75;100.00;77554.66;4992754;28;20475;-66
2022/04/09 08:24:15;;;;;;;2.00;0.63;;;;;;;-142.75;100.00;77481.81;4991636;28;20034;-68
2022/04/09 08:26:40;;;;;;;5.20;0.80;;;;;;;-142.75;100.00;77420.75;4989696;28;20024;-65
2022/04/09 08:29:06;;;;;;;4.38;1.02;;;;;;;-142.75;100.00;77334.13;4989635;28;20026;-66
2022/04/09 08:31:31;;;;;;;6.80;0.85;;;;;;;-142.75;100.00;77286.88;4990465;28;20434;-66
2022/04/09 08:33:57;;;;;;;7.10;1.77;;;;;;;-142.75;100.00;77263.25;4991659;28;20033;-68
2022/04/09 08:36:22;;;;;;;6.30;1.27;;;;;;;-142.75;100.00;77210.09;4993204;28;20085;-67
2022/04/09 08:38:47;;;;;;;3.90;1.13;;;;;;;-142.75;100.00;77229.78;4993091;28;20026;-64
2022/04/09 08:41:14;;;;;;;11.57;1.48;;;;;;;-142.75;100.00;77279.00;4989003;28;20125;-66
2022/04/09 08:43:40;;;;;;;7.85;2.08;;;;;;;-142.75;100.00;77324.28;4989861;28;20080;-68
2022/04/09 08:46:06;;;;;;;12.13;2.05;;;;;;;-142.75;100.00;77381.38;4988940;28;20026;-67
2022/04/09 08:48:32;;;;;;;8.13;1.45;;;;;;;-142.75;100.00;77440.44;4988750;28;20042;-68
2022/04/09 08:50:59;;;;;;;10.23;1.87;;;;;;;-142.75;100.00;77452.25;4989499;28;20080;-67
2022/04/09 08:53:24;;;;;;;11.00;1.70;;;;;;;-142.75;100.00;77377.44;4971556;28;20503;-66
2022/04/09 08:55:51;;;;;;;10.48;1.98;;;;;;;-142.75;100.00;77294.75;4988913;28;20053;-67
2022/04/09 08:58:16;;;;;;;5.93;1.60;;;;;;;-142.75;100.00;77267.19;4971155;28;20031;-67
2022/04/09 09:00:45;;;;;;;4.68;0.98;;;;;;;-142.75;100.00;77282.94;4971154;28;20398;-67
2022/04/09 09:03:14;;;;;;;4.90;1.60;;;;;;;-142.75;100.00;77273.09;4988601;28;20038;-69
2022/04/09 09:05:40;;;;;;;4.25;1.17;;;;;;;-142.75;100.00;77259.31;4989019;28;20033;-68
2022/04/09 09:08:10;;;;;;;6.38;1.08;;;;;;;-142.75;100.00;77190.41;4987690;28;20665;-65
2022/04/09 09:10:36;;;;;;;5.10;1.42;;;;;;;-142.75;100.00;77149.06;4988701;28;20480;-66
2022/04/09 09:13:07;;;;;;;7.65;1.30;;;;;;;-142.75;100.00;77168.75;4989532;28;20113;-65
2022/04/09 09:15:52;;;;;;;3.90;0.75;;;;;;;-142.75;100.00;77184.50;4989052;28;20026;-68
2022/04/09 09:18:23;;;;;;;8.48;1.40;;;;;;;-142.75;100.00;77294.75;5025766;22;20064;-65
2022/04/09 09:20:50;;;;;;;9.23;1.48;;;;;;;-142.75;100.00;77237.66;5041714;28;20023;-65
2022/04/09 09:23:23;;;;;;;7.18;1.35;;;;;;;-142.75;100.00;77162.84;5027744;28;20029;-65
2022/04/09 09:25:51;;;;;;;7.22;1.33;;;;;;;-142.75;100.00;77086.06;5027714;28;20091;-65
2022/04/09 09:28:33;;;;;;;4.60;0.85;;;;;;;-142.75;100.00;77078.19;5046708;28;20103;-66
2022/04/09 09:30:59;;;;;;;8.52;1.20;;;;;;;-142.75;100.00;77019.13;5063418;28;20048;-65
2022/04/09 09:33:26;;;;;;;4.28;1.10;;;;;;;-142.75;100.00;77034.88;5047968;28;20036;-66
2022/04/09 09:35:56;;;;;;;4.28;1.00;;;;;;;-142.75;100.00;76965.97;5048003;28;20454;-65
2022/04/09 09:38:27;;;;;;;4.22;0.85;;;;;;;-142.75;100.00;76952.19;5047450;28;20025;-65
2022/04/09 09:40:53;;;;;;;6.13;0.90;;;;;;;-142.75;100.00;76991.56;5047980;28;20028;-64
2022/04/09 09:43:20;;;;;;;6.55;1.02;;;;;;;-142.75;100.00;77054.56;5049917;28;20039;-66
2022/04/09 09:45:46;;;;;;;6.53;1.23;;;;;;;-142.75;100.00;77101.81;5051736;28;20028;-66
2022/04/09 09:48:19;;;;;;;5.13;1.25;;;;;;;-142.75;100.00;77180.56;5050707;28;20013;-66
2022/04/09 09:50:45;;;;;;;4.68;0.93;;;;;;;-142.75;100.00;77255.38;5049745;28;20078;-66
2022/04/09 09:53:10;;;;;;;13.27;1.85;;;;;;;-142.75;100.00;77290.81;5049550;28;20025;-66
2022/04/09 09:55:43;;;;;;;6.47;1.00;;;;;;;-142.75;100.00;77263.25;5051029;28;20035;-66
2022/04/09 09:58:12;;;;;;;8.07;1.20;;;;;;;-142.75;100.00;77208.13;5051016;28;20036;-66
2022/04/09 10:00:38;;;;;;;6.53;1.35;;;;;;;-142.75;100.00;77156.94;5051227;28;20031;-66
2022/04/09 10:03:05;;;;;;;;;;;;;;;-142.75;100.00;77178.59;5051772;28;20029;-66
2022/04/09 10:05:30;;;;;;;5.75;1.08;;;;;;;-142.75;100.00;77168.75;5051282;28;19913;-66
2022/04/09 10:07:56;;;;;;;10.05;1.40;;;;;;;-142.75;100.00;77113.63;5050853;28;20038;-65
2022/04/09 10:10:26;;;;;;;9.30;1.17;;;;;;;-142.75;100.00;77034.88;5051334;28;20487;-66
2022/04/09 10:12:57;;;;;;;8.43;1.73;;;;;;;-142.75;100.00;76975.81;5066581;28;20037;-65
2022/04/09 10:15:25;;;;;;;4.20;0.80;;;;;;;-142.75;100.00;76924.63;5050690;28;20033;-66
2022/04/09 10:17:53;;;;;;;5.10;1.30;;;;;;;-142.75;100.00;76893.13;5050606;28;20060;-65
2022/04/09 10:20:19;;;;;;;6.82;1.02;;;;;;;-142.75;100.00;76897.06;5050862;28;20021;-66
2022/04/09 10:22:46;;;;;;;4.70;0.70;;;;;;;-142.75;100.00;76971.88;5050481;28;20029;-66
2022/04/09 10:25:14;;;;;;;3.63;0.75;;;;;;;-142.75;100.00;76995.50;5066453;28;20048;-67
2022/04/09 10:27:43;;;;;;;3.50;0.70;;;;;;;-142.75;100.00;77017.16;5050360;28;20037;-68
2022/04/09 10:30:28;;;;;;;8.25;0.98;;;;;;;-142.75;100.00;76942.34;5050511;28;20104;-68
2022/04/09 10:32:59;;;;;;;3.72;0.68;;;;;;;-142.75;100.00;76928.56;5050582;28;20029;-66
2022/04/09 10:35:40;;;;;;;4.35;0.90;;;;;;;-142.75;100.00;77032.91;5050599;28;20056;-65
2022/04/09 10:38:16;;;;;;;5.03;0.75;;;;;;;-142.75;100.00;77068.34;5048893;28;20056;-65
2022/04/09 10:40:50;;;;;;;6.68;0.80;;;;;;;-142.75;100.00;77058.50;5050248;28;20021;-66
2022/04/09 10:43:21;;;;;;;4.88;1.00;;;;;;;-142.75;100.00;77034.88;5050739;28;20123;-66
2022/04/09 10:46:02;;;;;;;4.45;0.98;;;;;;;-142.75;100.00;76975.81;5054092;28;20098;-65
2022/04/09 10:48:37;;;;;;;5.18;0.75;;;;;;;-142.75;98.70;76987.63;5053823;28;20083;-65
2022/04/09 10:51:07;;;;;;;5.03;0.82;;;;;;;-142.75;100.00;77068.34;5055680;28;20032;-65
2022/04/09 10:53:41;;;;;;;2.72;0.40;;;;;;;-142.75;100.00;77176.63;5071144;28;20033;-64
2022/04/09 10:56:21;;;;;;;2.75;0.57;;;;;;;-142.75;100.00;77227.81;5055325;28;20048;-65
2022/04/09 10:59:10;;;;;;;3.42;0.95;;;;;;;-142.75;100.00;77324.28;5054864;28;20037;-64
2022/04/09 11:01:48;;;;;;;5.85;0.70;;;;;;;-142.75;100.00;77284.91;5053440;28;20036;-66
2022/04/09 11:04:25;;;;;;;14.15;1.45;;;;;;;-142.75;100.00;77129.38;5053651;28;20032;-66
2022/04/09 11:06:59;;;;;;;7.70;0.90;;;;;;;-142.75;100.00;77058.50;5053410;28;20082;-66
2022/04/09 11:09:26;;;;;;;8.50;1.13;;;;;;;-142.75;100.00;77005.34;5052831;28;20032;-67